sensor_id;sensor_type;location;lat;lon;timestamp;temperature;humidity
13464;DHT22;6804;48.774;9.174;2023-03-18T00:01:53;14.20;92.80
13464;DHT22;6804;48.774;9.174;2023-03-18T00:04:21;14.20;92.90
13464;DHT22;6804;48.774;9.174;2023-03-18T00:06:50;14.10;92.70
13464;DHT22;6804;48.774;9.174;2023-03-18T00:09:17;14.20;92.70
13464;DHT22;6804;48.774;9.174;2023-03-18T00:11:46;14.10;92.60
13464;DHT22;6804;48.774;9.174;2023-03-18T00:14:13;14.10;92.70
13464;DHT22;6804;48.774;9.174;2023-03-18T00:16:40;14.10;92.80
13464;DHT22;6804;48.774;9.174;2023-03-18T00:19:07;14.10;92.70
13464;DHT22;6804;48.774;9.174;2023-03-18T00:21:35;14.10;92.70
13464;DHT22;6804;48.774;9.174;2023-03-18T00:24:09;14.10;92.90
13464;DHT22;6804;48.774;9.174;2023-03-18T00:26:37;14.10;93.00
13464;DHT22;6804;48.774;9.174;2023-03-18T00:29:05;14.00;93.30
13464;DHT22;6804;48.774;9.174;2023-03-18T00:31:33;14.00;93.30
13464;DHT22;6804;48.774;9.174;2023-03-18T00:34:01;13.90;93.30
13464;DHT22;6804;48.774;9.174;2023-03-18T00:36:28;13.90;93.60
13464;DHT22;6804;48.774;9.174;2023-03-18T00:38:58;13.90;93.70
13464;DHT22;6804;48.774;9.174;2023-03-18T00:41:30;13.90;93.80
13464;DHT22;6804;48.774;9.174;2023-03-18T00:44:01;13.90;93.90
13464;DHT22;6804;48.774;9.174;2023-03-18T00:46:30;13.80;93.50
13464;DHT22;6804;48.774;9.174;2023-03-18T00:48:59;13.80;93.40
13464;DHT22;6804;48.774;9.174;2023-03-18T00:51:29;13.80;93.30
13464;DHT22;6804;48.774;9.174;2023-03-18T00:53:59;13.80;93.10
13464;DHT22;6804;48.774;9.174;2023-03-18T00:56:30;13.80;93.20
13464;DHT22;6804;48.774;9.174;2023-03-18T00:58:58;13.80;93.00
13464;DHT22;6804;48.774;9.174;2023-03-18T01:01:29;13.80;92.90
13464;DHT22;6804;48.774;9.174;2023-03-18T01:03:56;13.80;92.90
13464;DHT22;6804;48.774;9.174;2023-03-18T01:06:26;13.80;93.10
13464;DHT22;6804;48.774;9.174;2023-03-18T01:08:57;13.80;93.10
13464;DHT22;6804;48.774;9.174;2023-03-18T01:11:31;13.70;93.20
13464;DHT22;6804;48.774;9.174;2023-03-18T01:13:59;13.70;93.40
13464;DHT22;6804;48.774;9.174;2023-03-18T01:16:29;13.70;93.40
13464;DHT22;6804;48.774;9.174;2023-03-18T01:18:59;13.70;93.20
13464;DHT22;6804;48.774;9.174;2023-03-18T01:21:29;13.70;93.10
13464;DHT22;6804;48.774;9.174;2023-03-18T01:23:57;13.70;92.80
13464;DHT22;6804;48.774;9.174;2023-03-18T01:26:29;13.70;92.70
13464;DHT22;6804;48.774;9.174;2023-03-18T01:28:57;13.70;92.80
13464;DHT22;6804;48.774;9.174;2023-03-18T01:31:25;13.70;92.60
13464;DHT22;6804;48.774;9.174;2023-03-18T01:33:53;13.60;92.70
13464;DHT22;6804;48.774;9.174;2023-03-18T01:36:20;13.60;92.70
13464;DHT22;6804;48.774;9.174;2023-03-18T01:38:49;13.60;92.70
13464;DHT22;6804;48.774;9.174;2023-03-18T01:41:17;13.60;92.70
13464;DHT22;6804;48.774;9.174;2023-03-18T01:43:48;13.50;92.90
13464;DHT22;6804;48.774;9.174;2023-03-18T01:46:34;13.50;93.10
13464;DHT22;6804;48.774;9.174;2023-03-18T01:49:05;13.50;93.20
13464;DHT22;6804;48.774;9.174;2023-03-18T01:51:34;13.50;93.10
13464;DHT22;6804;48.774;9.174;2023-03-18T01:54:06;13.50;93.00
13464;DHT22;6804;48.774;9.174;2023-03-18T01:56:36;13.50;92.90
13464;DHT22;6804;48.774;9.174;2023-03-18T01:59:10;13.50;92.90
13464;DHT22;6804;48.774;9.174;2023-03-18T02:01:46;13.50;93.10
13464;DHT22;6804;48.774;9.174;2023-03-18T02:04:14;13.40;93.20
13464;DHT22;6804;48.774;9.174;2023-03-18T02:06:46;13.40;93.30
13464;DHT22;6804;48.774;9.174;2023-03-18T02:09:13;13.40;93.20
13464;DHT22;6804;48.774;9.174;2023-03-18T02:11:45;13.40;93.00
13464;DHT22;6804;48.774;9.174;2023-03-18T02:14:19;13.40;92.80
13464;DHT22;6804;48.774;9.174;2023-03-18T02:16:51;13.40;92.70
13464;DHT22;6804;48.774;9.174;2023-03-18T02:19:34;13.40;92.60
13464;DHT22;6804;48.774;9.174;2023-03-18T02:22:14;13.50;92.70
13464;DHT22;6804;48.774;9.174;2023-03-18T02:24:51;13.50;92.70
13464;DHT22;6804;48.774;9.174;2023-03-18T02:27:24;13.50;92.60
13464;DHT22;6804;48.774;9.174;2023-03-18T02:29:54;13.60;92.50
13464;DHT22;6804;48.774;9.174;2023-03-18T02:32:25;13.60;92.60
13464;DHT22;6804;48.774;9.174;2023-03-18T02:34:53;13.50;92.50
13464;DHT22;6804;48.774;9.174;2023-03-18T02:37:20;13.60;92.60
13464;DHT22;6804;48.774;9.174;2023-03-18T02:39:57;13.60;92.60
13464;DHT22;6804;48.774;9.174;2023-03-18T02:42:38;13.60;92.60
13464;DHT22;6804;48.774;9.174;2023-03-18T02:45:12;13.60;92.60
13464;DHT22;6804;48.774;9.174;2023-03-18T02:47:46;13.50;92.80
13464;DHT22;6804;48.774;9.174;2023-03-18T02:50:17;13.50;93.20
13464;DHT22;6804;48.774;9.174;2023-03-18T02:52:50;13.50;93.20
13464;DHT22;6804;48.774;9.174;2023-03-18T02:55:20;13.40;93.30
13464;DHT22;6804;48.774;9.174;2023-03-18T02:57:52;13.30;93.30
13464;DHT22;6804;48.774;9.174;2023-03-18T03:00:22;13.30;93.10
13464;DHT22;6804;48.774;9.174;2023-03-18T03:02:55;13.30;93.10
13464;DHT22;6804;48.774;9.174;2023-03-18T03:05:22;13.30;93.00
13464;DHT22;6804;48.774;9.174;2023-03-18T03:07:52;13.30;92.90
13464;DHT22;6804;48.774;9.174;2023-03-18T03:10:20;13.30;93.00
13464;DHT22;6804;48.774;9.174;2023-03-18T03:12:47;13.30;93.00
13464;DHT22;6804;48.774;9.174;2023-03-18T03:15:16;13.30;93.00
13464;DHT22;6804;48.774;9.174;2023-03-18T03:17:44;13.40;93.00
13464;DHT22;6804;48.774;9.174;2023-03-18T03:20:13;13.30;92.80
13464;DHT22;6804;48.774;9.174;2023-03-18T03:22:43;13.40;92.90
13464;DHT22;6804;48.774;9.174;2023-03-18T03:25:11;13.30;93.00
13464;DHT22;6804;48.774;9.174;2023-03-18T03:27:39;13.40;93.10
13464;DHT22;6804;48.774;9.174;2023-03-18T03:30:13;13.40;93.10
13464;DHT22;6804;48.774;9.174;2023-03-18T03:32:42;13.40;93.10
13464;DHT22;6804;48.774;9.174;2023-03-18T03:35:13;13.40;93.00
13464;DHT22;6804;48.774;9.174;2023-03-18T03:37:44;13.40;93.00
13464;DHT22;6804;48.774;9.174;2023-03-18T03:40:13;13.40;92.90
13464;DHT22;6804;48.774;9.174;2023-03-18T03:42:42;13.40;93.00
13464;DHT22;6804;48.774;9.174;2023-03-18T03:45:14;13.40;93.20
13464;DHT22;6804;48.774;9.174;2023-03-18T03:47:43;13.40;93.20
13464;DHT22;6804;48.774;9.174;2023-03-18T03:50:12;13.40;93.30
13464;DHT22;6804;48.774;9.174;2023-03-18T03:52:43;13.40;93.40
13464;DHT22;6804;48.774;9.174;2023-03-18T03:55:15;13.40;93.70
13464;DHT22;6804;48.774;9.174;2023-03-18T03:57:44;13.30;93.50
13464;DHT22;6804;48.774;9.174;2023-03-18T04:00:14;13.30;93.70
13464;DHT22;6804;48.774;9.174;2023-03-18T04:02:46;13.30;93.80
13464;DHT22;6804;48.774;9.174;2023-03-18T04:05:16;13.20;94.00
13464;DHT22;6804;48.774;9.174;2023-03-18T04:07:45;13.20;94.00
13464;DHT22;6804;48.774;9.174;2023-03-18T04:10:14;13.20;94.00
13464;DHT22;6804;48.774;9.174;2023-03-18T04:12:45;13.20;93.90
13464;DHT22;6804;48.774;9.174;2023-03-18T04:15:14;13.10;93.80
13464;DHT22;6804;48.774;9.174;2023-03-18T04:17:43;13.20;93.90
13464;DHT22;6804;48.774;9.174;2023-03-18T04:20:12;13.10;93.70
13464;DHT22;6804;48.774;9.174;2023-03-18T04:22:39;13.20;93.70
13464;DHT22;6804;48.774;9.174;2023-03-18T04:25:10;13.20;93.80
13464;DHT22;6804;48.774;9.174;2023-03-18T04:27:39;13.20;93.60
13464;DHT22;6804;48.774;9.174;2023-03-18T04:30:09;13.10;93.50
13464;DHT22;6804;48.774;9.174;2023-03-18T04:32:37;13.10;93.40
13464;DHT22;6804;48.774;9.174;2023-03-18T04:35:06;13.20;93.50
13464;DHT22;6804;48.774;9.174;2023-03-18T04:37:33;13.10;93.50
13464;DHT22;6804;48.774;9.174;2023-03-18T04:40:05;13.10;93.60
13464;DHT22;6804;48.774;9.174;2023-03-18T04:42:33;13.10;94.00
13464;DHT22;6804;48.774;9.174;2023-03-18T04:45:00;13.00;94.00
13464;DHT22;6804;48.774;9.174;2023-03-18T04:47:33;12.90;94.30
13464;DHT22;6804;48.774;9.174;2023-03-18T04:50:07;12.90;94.90
13464;DHT22;6804;48.774;9.174;2023-03-18T04:52:35;12.90;94.80
13464;DHT22;6804;48.774;9.174;2023-03-18T04:55:04;12.80;94.90
13464;DHT22;6804;48.774;9.174;2023-03-18T04:57:34;12.80;94.90
13464;DHT22;6804;48.774;9.174;2023-03-18T05:00:08;12.80;94.90
13464;DHT22;6804;48.774;9.174;2023-03-18T05:02:36;12.70;95.10
13464;DHT22;6804;48.774;9.174;2023-03-18T05:05:04;12.60;95.10
13464;DHT22;6804;48.774;9.174;2023-03-18T05:07:37;12.60;94.90
13464;DHT22;6804;48.774;9.174;2023-03-18T05:10:05;12.60;94.90
13464;DHT22;6804;48.774;9.174;2023-03-18T05:12:35;12.60;94.90
13464;DHT22;6804;48.774;9.174;2023-03-18T05:15:03;12.60;94.80
13464;DHT22;6804;48.774;9.174;2023-03-18T05:17:30;12.50;94.70
13464;DHT22;6804;48.774;9.174;2023-03-18T05:19:57;12.50;94.90
13464;DHT22;6804;48.774;9.174;2023-03-18T05:22:27;12.50;95.00
13464;DHT22;6804;48.774;9.174;2023-03-18T05:24:56;12.40;94.90
13464;DHT22;6804;48.774;9.174;2023-03-18T05:27:24;12.50;95.00
13464;DHT22;6804;48.774;9.174;2023-03-18T05:29:56;12.40;95.00
13464;DHT22;6804;48.774;9.174;2023-03-18T05:32:23;12.40;95.20
13464;DHT22;6804;48.774;9.174;2023-03-18T05:34:51;12.40;95.30
13464;DHT22;6804;48.774;9.174;2023-03-18T05:37:20;12.40;95.30
13464;DHT22;6804;48.774;9.174;2023-03-18T05:39:50;12.30;95.40
13464;DHT22;6804;48.774;9.174;2023-03-18T05:42:26;12.20;95.50
13464;DHT22;6804;48.774;9.174;2023-03-18T05:44:53;12.20;95.60
13464;DHT22;6804;48.774;9.174;2023-03-18T05:47:21;12.00;96.00
13464;DHT22;6804;48.774;9.174;2023-03-18T05:49:48;11.90;96.30
13464;DHT22;6804;48.774;9.174;2023-03-18T05:52:15;11.80;96.30
13464;DHT22;6804;48.774;9.174;2023-03-18T05:54:45;11.70;96.70
13464;DHT22;6804;48.774;9.174;2023-03-18T05:57:16;11.60;96.60
13464;DHT22;6804;48.774;9.174;2023-03-18T05:59:45;11.60;96.90
13464;DHT22;6804;48.774;9.174;2023-03-18T06:02:12;11.50;96.70
13464;DHT22;6804;48.774;9.174;2023-03-18T06:04:39;11.60;96.90
13464;DHT22;6804;48.774;9.174;2023-03-18T06:07:06;11.60;96.80
13464;DHT22;6804;48.774;9.174;2023-03-18T06:09:34;11.60;96.90
13464;DHT22;6804;48.774;9.174;2023-03-18T06:12:07;11.50;96.80
13464;DHT22;6804;48.774;9.174;2023-03-18T06:14:37;11.50;96.90
13464;DHT22;6804;48.774;9.174;2023-03-18T06:17:08;11.40;97.20
13464;DHT22;6804;48.774;9.174;2023-03-18T06:19:36;11.30;97.60
13464;DHT22;6804;48.774;9.174;2023-03-18T06:22:03;11.20;97.70
13464;DHT22;6804;48.774;9.174;2023-03-18T06:24:30;11.30;97.60
13464;DHT22;6804;48.774;9.174;2023-03-18T06:26:57;11.20;97.80
13464;DHT22;6804;48.774;9.174;2023-03-18T06:29:25;11.20;98.10
13464;DHT22;6804;48.774;9.174;2023-03-18T06:31:52;11.30;98.10
13464;DHT22;6804;48.774;9.174;2023-03-18T06:34:23;11.30;97.80
13464;DHT22;6804;48.774;9.174;2023-03-18T06:36:53;11.30;97.60
13464;DHT22;6804;48.774;9.174;2023-03-18T06:39:21;11.40;97.90
13464;DHT22;6804;48.774;9.174;2023-03-18T06:41:50;11.50;98.00
13464;DHT22;6804;48.774;9.174;2023-03-18T06:44:17;11.60;97.30
13464;DHT22;6804;48.774;9.174;2023-03-18T06:46:44;11.60;97.80
13464;DHT22;6804;48.774;9.174;2023-03-18T06:49:12;11.70;97.70
13464;DHT22;6804;48.774;9.174;2023-03-18T06:51:41;11.70;97.60
13464;DHT22;6804;48.774;9.174;2023-03-18T06:54:08;11.80;97.70
13464;DHT22;6804;48.774;9.174;2023-03-18T06:56:37;11.80;97.60
13464;DHT22;6804;48.774;9.174;2023-03-18T06:59:07;11.90;97.70
13464;DHT22;6804;48.774;9.174;2023-03-18T07:01:38;12.10;97.20
13464;DHT22;6804;48.774;9.174;2023-03-18T07:04:06;12.20;97.00
13464;DHT22;6804;48.774;9.174;2023-03-18T07:06:40;12.40;96.60
13464;DHT22;6804;48.774;9.174;2023-03-18T07:09:08;12.60;96.20
13464;DHT22;6804;48.774;9.174;2023-03-18T07:11:36;12.80;96.50
13464;DHT22;6804;48.774;9.174;2023-03-18T07:14:03;13.00;96.30
13464;DHT22;6804;48.774;9.174;2023-03-18T07:16:30;13.30;95.60
13464;DHT22;6804;48.774;9.174;2023-03-18T07:18:57;13.70;94.90
13464;DHT22;6804;48.774;9.174;2023-03-18T07:21:27;13.90;94.40
13464;DHT22;6804;48.774;9.174;2023-03-18T07:23:58;14.10;94.20
13464;DHT22;6804;48.774;9.174;2023-03-18T07:26:26;14.20;94.00
13464;DHT22;6804;48.774;9.174;2023-03-18T07:28:53;14.20;93.60
13464;DHT22;6804;48.774;9.174;2023-03-18T07:31:21;14.20;94.40
13464;DHT22;6804;48.774;9.174;2023-03-18T07:33:49;14.40;95.30
13464;DHT22;6804;48.774;9.174;2023-03-18T07:36:16;14.50;94.50
13464;DHT22;6804;48.774;9.174;2023-03-18T07:38:44;14.60;94.80
13464;DHT22;6804;48.774;9.174;2023-03-18T07:41:13;14.70;94.40
13464;DHT22;6804;48.774;9.174;2023-03-18T07:43:40;14.60;94.70
13464;DHT22;6804;48.774;9.174;2023-03-18T07:46:08;14.40;94.60
13464;DHT22;6804;48.774;9.174;2023-03-18T07:48:39;14.20;95.40
13464;DHT22;6804;48.774;9.174;2023-03-18T07:51:06;14.40;95.40
13464;DHT22;6804;48.774;9.174;2023-03-18T07:53:34;14.40;94.90
13464;DHT22;6804;48.774;9.174;2023-03-18T07:56:03;14.60;94.20
13464;DHT22;6804;48.774;9.174;2023-03-18T07:58:31;14.80;94.60
13464;DHT22;6804;48.774;9.174;2023-03-18T08:00:59;15.10;94.80
13464;DHT22;6804;48.774;9.174;2023-03-18T08:03:27;15.50;93.60
13464;DHT22;6804;48.774;9.174;2023-03-18T08:05:56;15.80;93.10
13464;DHT22;6804;48.774;9.174;2023-03-18T08:08:30;15.60;92.80
13464;DHT22;6804;48.774;9.174;2023-03-18T08:10:58;15.40;92.70
13464;DHT22;6804;48.774;9.174;2023-03-18T08:13:27;15.30;92.50
13464;DHT22;6804;48.774;9.174;2023-03-18T08:15:56;15.10;92.20
13464;DHT22;6804;48.774;9.174;2023-03-18T08:18:23;15.20;91.90
13464;DHT22;6804;48.774;9.174;2023-03-18T08:20:51;15.40;92.10
13464;DHT22;6804;48.774;9.174;2023-03-18T08:23:21;15.80;92.90
13464;DHT22;6804;48.774;9.174;2023-03-18T08:25:50;16.00;90.80
13464;DHT22;6804;48.774;9.174;2023-03-18T08:28:29;15.90;90.00
13464;DHT22;6804;48.774;9.174;2023-03-18T08:30:58;16.00;90.10
13464;DHT22;6804;48.774;9.174;2023-03-18T08:33:29;16.10;90.30
13464;DHT22;6804;48.774;9.174;2023-03-18T08:36:03;16.30;88.70
13464;DHT22;6804;48.774;9.174;2023-03-18T08:38:30;16.50;88.10
13464;DHT22;6804;48.774;9.174;2023-03-18T08:41:00;16.60;86.60
13464;DHT22;6804;48.774;9.174;2023-03-18T08:43:31;16.80;87.10
13464;DHT22;6804;48.774;9.174;2023-03-18T08:46:03;17.20;83.40
13464;DHT22;6804;48.774;9.174;2023-03-18T08:48:30;17.50;81.10
13464;DHT22;6804;48.774;9.174;2023-03-18T08:50:58;17.80;80.10
13464;DHT22;6804;48.774;9.174;2023-03-18T08:53:28;18.00;80.50
13464;DHT22;6804;48.774;9.174;2023-03-18T08:56:01;18.20;78.10
13464;DHT22;6804;48.774;9.174;2023-03-18T08:58:34;18.50;79.30
13464;DHT22;6804;48.774;9.174;2023-03-18T09:01:04;18.80;78.30
13464;DHT22;6804;48.774;9.174;2023-03-18T09:03:32;18.90;77.50
13464;DHT22;6804;48.774;9.174;2023-03-18T09:06:01;19.10;76.20
13464;DHT22;6804;48.774;9.174;2023-03-18T09:08:32;19.20;75.50
13464;DHT22;6804;48.774;9.174;2023-03-18T09:11:00;19.50;76.80
13464;DHT22;6804;48.774;9.174;2023-03-18T09:13:27;19.80;75.70
13464;DHT22;6804;48.774;9.174;2023-03-18T09:15:56;19.90;75.10
13464;DHT22;6804;48.774;9.174;2023-03-18T09:18:25;19.90;73.80
13464;DHT22;6804;48.774;9.174;2023-03-18T09:20:53;20.10;75.00
13464;DHT22;6804;48.774;9.174;2023-03-18T09:23:23;20.30;74.60
13464;DHT22;6804;48.774;9.174;2023-03-18T09:25:51;20.20;73.00
13464;DHT22;6804;48.774;9.174;2023-03-18T09:28:20;19.90;73.60
13464;DHT22;6804;48.774;9.174;2023-03-18T09:30:48;19.70;74.00
13464;DHT22;6804;48.774;9.174;2023-03-18T09:33:15;19.60;74.40
13464;DHT22;6804;48.774;9.174;2023-03-18T09:35:44;19.30;75.20
13464;DHT22;6804;48.774;9.174;2023-03-18T09:38:16;19.50;76.60
13464;DHT22;6804;48.774;9.174;2023-03-18T09:40:58;19.80;76.60
13464;DHT22;6804;48.774;9.174;2023-03-18T09:43:36;20.10;74.70
13464;DHT22;6804;48.774;9.174;2023-03-18T09:46:15;19.80;73.50
13464;DHT22;6804;48.774;9.174;2023-03-18T09:49:08;19.20;74.50
13464;DHT22;6804;48.774;9.174;2023-03-18T09:51:48;18.90;76.30
13464;DHT22;6804;48.774;9.174;2023-03-18T09:54:28;18.80;78.40
13464;DHT22;6804;48.774;9.174;2023-03-18T09:56:55;19.00;76.70
13464;DHT22;6804;48.774;9.174;2023-03-18T09:59:25;19.40;78.10
13464;DHT22;6804;48.774;9.174;2023-03-18T10:01:58;19.60;76.10
13464;DHT22;6804;48.774;9.174;2023-03-18T10:04:31;19.70;75.90
13464;DHT22;6804;48.774;9.174;2023-03-18T10:07:06;19.30;78.60
13464;DHT22;6804;48.774;9.174;2023-03-18T10:09:41;18.90;79.90
13464;DHT22;6804;48.774;9.174;2023-03-18T10:12:17;18.30;81.90
13464;DHT22;6804;48.774;9.174;2023-03-18T10:14:51;18.10;83.60
13464;DHT22;6804;48.774;9.174;2023-03-18T10:17:26;18.30;83.50
13464;DHT22;6804;48.774;9.174;2023-03-18T10:20:00;18.30;83.30
13464;DHT22;6804;48.774;9.174;2023-03-18T10:22:57;18.40;83.50
13464;DHT22;6804;48.774;9.174;2023-03-18T10:25:34;18.50;84.10
13464;DHT22;6804;48.774;9.174;2023-03-18T10:28:14;18.80;82.20
13464;DHT22;6804;48.774;9.174;2023-03-18T10:30:53;19.00;81.00
13464;DHT22;6804;48.774;9.174;2023-03-18T10:33:29;19.20;82.60
13464;DHT22;6804;48.774;9.174;2023-03-18T10:36:11;19.60;82.40
13464;DHT22;6804;48.774;9.174;2023-03-18T10:38:46;20.00;81.10
13464;DHT22;6804;48.774;9.174;2023-03-18T10:41:19;20.30;80.30
13464;DHT22;6804;48.774;9.174;2023-03-18T10:43:49;20.60;79.50
13464;DHT22;6804;48.774;9.174;2023-03-18T10:46:21;20.70;77.30
13464;DHT22;6804;48.774;9.174;2023-03-18T10:48:53;20.60;74.50
13464;DHT22;6804;48.774;9.174;2023-03-18T10:51:29;20.60;76.00
13464;DHT22;6804;48.774;9.174;2023-03-18T10:54:05;20.50;74.90
13464;DHT22;6804;48.774;9.174;2023-03-18T10:56:36;20.70;75.40
13464;DHT22;6804;48.774;9.174;2023-03-18T10:59:10;21.00;75.20
13464;DHT22;6804;48.774;9.174;2023-03-18T11:01:38;21.10;73.80
13464;DHT22;6804;48.774;9.174;2023-03-18T11:04:13;21.20;72.20
13464;DHT22;6804;48.774;9.174;2023-03-18T11:06:44;21.20;72.10
13464;DHT22;6804;48.774;9.174;2023-03-18T11:09:17;21.10;72.20
13464;DHT22;6804;48.774;9.174;2023-03-18T11:11:49;20.90;70.30
13464;DHT22;6804;48.774;9.174;2023-03-18T11:14:27;20.80;69.90
13464;DHT22;6804;48.774;9.174;2023-03-18T11:16:57;20.80;71.20
13464;DHT22;6804;48.774;9.174;2023-03-18T11:19:29;21.00;71.90
13464;DHT22;6804;48.774;9.174;2023-03-18T11:25:11;21.40;68.00
13464;DHT22;6804;48.774;9.174;2023-03-18T11:27:44;21.60;69.80
13464;DHT22;6804;48.774;9.174;2023-03-18T11:30:18;21.60;67.70
13464;DHT22;6804;48.774;9.174;2023-03-18T11:32:54;21.70;69.30
13464;DHT22;6804;48.774;9.174;2023-03-18T11:35:34;21.50;66.50
13464;DHT22;6804;48.774;9.174;2023-03-18T11:38:03;20.90;64.70
13464;DHT22;6804;48.774;9.174;2023-03-18T11:40:33;20.50;66.60
13464;DHT22;6804;48.774;9.174;2023-03-18T11:43:03;20.20;66.80
13464;DHT22;6804;48.774;9.174;2023-03-18T11:45:48;20.30;68.00
13464;DHT22;6804;48.774;9.174;2023-03-18T11:48:30;20.60;68.20
13464;DHT22;6804;48.774;9.174;2023-03-18T11:51:40;20.80;64.20
13464;DHT22;6804;48.774;9.174;2023-03-18T11:54:40;20.90;63.80
13464;DHT22;6804;48.774;9.174;2023-03-18T11:57:16;21.10;63.50
13464;DHT22;6804;48.774;9.174;2023-03-18T11:59:56;21.40;64.20
13464;DHT22;6804;48.774;9.174;2023-03-18T12:02:47;21.60;63.00
13464;DHT22;6804;48.774;9.174;2023-03-18T12:05:46;21.70;63.60
13464;DHT22;6804;48.774;9.174;2023-03-18T12:08:26;21.90;63.30
13464;DHT22;6804;48.774;9.174;2023-03-18T12:11:05;22.10;63.50
13464;DHT22;6804;48.774;9.174;2023-03-18T12:13:45;22.10;61.30
13464;DHT22;6804;48.774;9.174;2023-03-18T12:16:24;21.90;62.20
13464;DHT22;6804;48.774;9.174;2023-03-18T12:19:08;21.90;63.20
13464;DHT22;6804;48.774;9.174;2023-03-18T12:21:57;22.00;64.40
13464;DHT22;6804;48.774;9.174;2023-03-18T12:24:52;21.90;63.20
13464;DHT22;6804;48.774;9.174;2023-03-18T12:27:35;22.00;62.60
13464;DHT22;6804;48.774;9.174;2023-03-18T12:30:17;22.10;62.70
13464;DHT22;6804;48.774;9.174;2023-03-18T12:32:50;22.20;63.70
13464;DHT22;6804;48.774;9.174;2023-03-18T12:35:39;22.40;63.40
13464;DHT22;6804;48.774;9.174;2023-03-18T12:41:29;22.00;63.20
13464;DHT22;6804;48.774;9.174;2023-03-18T12:44:28;22.10;62.90
13464;DHT22;6804;48.774;9.174;2023-03-18T12:47:06;22.30;63.50
13464;DHT22;6804;48.774;9.174;2023-03-18T12:49:44;22.30;61.00
13464;DHT22;6804;48.774;9.174;2023-03-18T12:52:23;22.40;62.80
13464;DHT22;6804;48.774;9.174;2023-03-18T12:55:00;22.50;61.70
13464;DHT22;6804;48.774;9.174;2023-03-18T12:57:35;22.40;61.60
13464;DHT22;6804;48.774;9.174;2023-03-18T13:00:15;22.40;59.70
13464;DHT22;6804;48.774;9.174;2023-03-18T13:02:50;22.20;62.60
13464;DHT22;6804;48.774;9.174;2023-03-18T13:05:24;22.30;62.70
13464;DHT22;6804;48.774;9.174;2023-03-18T13:10:52;22.50;62.00
13464;DHT22;6804;48.774;9.174;2023-03-18T13:13:23;22.80;61.80
13464;DHT22;6804;48.774;9.174;2023-03-18T13:15:53;22.80;60.40
13464;DHT22;6804;48.774;9.174;2023-03-18T13:18:25;22.90;59.30
13464;DHT22;6804;48.774;9.174;2023-03-18T13:20:57;22.80;58.80
13464;DHT22;6804;48.774;9.174;2023-03-18T13:23:42;22.80;59.20
13464;DHT22;6804;48.774;9.174;2023-03-18T13:26:20;22.90;58.40
13464;DHT22;6804;48.774;9.174;2023-03-18T13:29:01;22.80;57.20
13464;DHT22;6804;48.774;9.174;2023-03-18T13:31:41;22.80;58.70
13464;DHT22;6804;48.774;9.174;2023-03-18T13:34:46;22.90;59.00
13464;DHT22;6804;48.774;9.174;2023-03-18T13:37:29;23.00;58.50
13464;DHT22;6804;48.774;9.174;2023-03-18T13:40:22;23.00;57.80
13464;DHT22;6804;48.774;9.174;2023-03-18T13:42:56;23.00;56.10
13464;DHT22;6804;48.774;9.174;2023-03-18T13:45:31;22.80;56.30
13464;DHT22;6804;48.774;9.174;2023-03-18T13:48:01;22.70;55.90
13464;DHT22;6804;48.774;9.174;2023-03-18T13:50:36;22.50;55.70
13464;DHT22;6804;48.774;9.174;2023-03-18T13:53:15;22.40;56.20
13464;DHT22;6804;48.774;9.174;2023-03-18T13:55:48;22.30;56.50
13464;DHT22;6804;48.774;9.174;2023-03-18T13:58:21;22.10;56.40
13464;DHT22;6804;48.774;9.174;2023-03-18T14:04:20;22.00;56.80
13464;DHT22;6804;48.774;9.174;2023-03-18T14:07:12;22.10;56.50
13464;DHT22;6804;48.774;9.174;2023-03-18T14:09:52;22.10;56.00
13464;DHT22;6804;48.774;9.174;2023-03-18T14:12:40;22.00;56.40
13464;DHT22;6804;48.774;9.174;2023-03-18T14:15:37;22.00;56.50
13464;DHT22;6804;48.774;9.174;2023-03-18T14:18:19;22.00;57.10
13464;DHT22;6804;48.774;9.174;2023-03-18T14:20:52;22.00;57.30
13464;DHT22;6804;48.774;9.174;2023-03-18T14:23:33;22.00;57.30
13464;DHT22;6804;48.774;9.174;2023-03-18T14:26:04;22.00;56.60
13464;DHT22;6804;48.774;9.174;2023-03-18T14:28:54;21.90;56.00
13464;DHT22;6804;48.774;9.174;2023-03-18T14:31:31;21.80;56.20
13464;DHT22;6804;48.774;9.174;2023-03-18T14:34:19;21.70;56.10
13464;DHT22;6804;48.774;9.174;2023-03-18T14:40:06;21.60;56.40
13464;DHT22;6804;48.774;9.174;2023-03-18T14:42:52;21.50;55.70
13464;DHT22;6804;48.774;9.174;2023-03-18T14:45:26;21.50;56.60
13464;DHT22;6804;48.774;9.174;2023-03-18T14:47:57;21.50;57.10
13464;DHT22;6804;48.774;9.174;2023-03-18T14:50:38;21.50;56.30
13464;DHT22;6804;48.774;9.174;2023-03-18T14:53:28;21.50;56.20
13464;DHT22;6804;48.774;9.174;2023-03-18T14:56:02;21.50;56.50
13464;DHT22;6804;48.774;9.174;2023-03-18T14:58:33;21.50;56.40
13464;DHT22;6804;48.774;9.174;2023-03-18T15:01:05;21.50;56.50
13464;DHT22;6804;48.774;9.174;2023-03-18T15:03:34;21.50;56.20
13464;DHT22;6804;48.774;9.174;2023-03-18T15:06:05;21.40;55.50
13464;DHT22;6804;48.774;9.174;2023-03-18T15:08:34;21.30;55.50
13464;DHT22;6804;48.774;9.174;2023-03-18T15:11:06;21.20;55.90
13464;DHT22;6804;48.774;9.174;2023-03-18T15:13:34;21.20;56.50
13464;DHT22;6804;48.774;9.174;2023-03-18T15:16:13;21.00;56.20
13464;DHT22;6804;48.774;9.174;2023-03-18T15:18:41;21.00;56.10
13464;DHT22;6804;48.774;9.174;2023-03-18T15:21:15;20.90;56.00
13464;DHT22;6804;48.774;9.174;2023-03-18T15:23:47;20.80;56.10
13464;DHT22;6804;48.774;9.174;2023-03-18T15:26:22;20.80;56.10
13464;DHT22;6804;48.774;9.174;2023-03-18T15:28:54;20.80;56.40
13464;DHT22;6804;48.774;9.174;2023-03-18T15:31:23;20.70;61.30
13464;DHT22;6804;48.774;9.174;2023-03-18T15:34:05;20.60;65.60
13464;DHT22;6804;48.774;9.174;2023-03-18T15:36:42;20.50;70.30
13464;DHT22;6804;48.774;9.174;2023-03-18T15:39:21;20.40;71.30
13464;DHT22;6804;48.774;9.174;2023-03-18T15:41:55;20.30;72.70
13464;DHT22;6804;48.774;9.174;2023-03-18T15:44:25;20.20;73.20
13464;DHT22;6804;48.774;9.174;2023-03-18T15:46:53;20.20;74.10
13464;DHT22;6804;48.774;9.174;2023-03-18T15:49:25;20.10;74.50
13464;DHT22;6804;48.774;9.174;2023-03-18T15:52:06;20.10;75.10
13464;DHT22;6804;48.774;9.174;2023-03-18T15:54:38;20.00;75.50
13464;DHT22;6804;48.774;9.174;2023-03-18T15:57:24;19.90;75.90
13464;DHT22;6804;48.774;9.174;2023-03-18T15:59:54;19.90;76.20
13464;DHT22;6804;48.774;9.174;2023-03-18T16:02:22;19.90;76.60
13464;DHT22;6804;48.774;9.174;2023-03-18T16:05:02;19.90;76.60
13464;DHT22;6804;48.774;9.174;2023-03-18T16:07:34;19.90;76.50
13464;DHT22;6804;48.774;9.174;2023-03-18T16:10:08;19.80;76.40
13464;DHT22;6804;48.774;9.174;2023-03-18T16:12:38;19.80;76.60
13464;DHT22;6804;48.774;9.174;2023-03-18T16:15:12;19.70;76.80
13464;DHT22;6804;48.774;9.174;2023-03-18T16:17:49;19.70;77.00
13464;DHT22;6804;48.774;9.174;2023-03-18T16:20:22;19.60;77.40
13464;DHT22;6804;48.774;9.174;2023-03-18T16:22:50;19.50;77.60
13464;DHT22;6804;48.774;9.174;2023-03-18T16:25:19;19.40;78.00
13464;DHT22;6804;48.774;9.174;2023-03-18T16:27:49;19.40;78.40
13464;DHT22;6804;48.774;9.174;2023-03-18T16:30:22;19.30;78.50
13464;DHT22;6804;48.774;9.174;2023-03-18T16:32:57;19.30;79.00
13464;DHT22;6804;48.774;9.174;2023-03-18T16:35:32;19.30;79.40